Time;durP1;ratioP1;P1;durP2;ratioP2;P2;SDS_P1;SDS_P2;PMS_P1;PMS_P2;Temp;Humidity;BMP_temperature;BMP_pressure;BME280_temperature;BME280_humidity;BME280_pressure;Samples;Min_cycle;Max_cycle;Signal;HPM_P1;HPM_P2
2022/10/19 00:01:03;;;;;;;7.57;3.60;;;11.50;99.90;;;11.58;100.00;102216.56;5224987;28;20056;-66
2022/10/19 00:03:36;;;;;;;9.63;4.57;;;11.50;99.90;;;11.58;100.00;102211.34;5225005;28;20120;-63
2022/10/19 00:06:24;;;;;;;8.43;4.05;;;11.60;99.90;;;11.59;100.00;102218.38;5225172;28;20051;-67
2022/10/19 00:08:59;;;;;;;;;;;11.50;99.90;;;11.58;100.00;102206.13;5225646;28;20055;-66
2022/10/19 00:11:33;;;;;;;6.53;3.10;;;11.60;99.90;;;11.56;100.00;102213.00;5225014;28;19927;-68
2022/10/19 00:14:08;;;;;;;8.20;3.40;;;11.50;99.90;;;11.52;100.00;102205.81;5206756;28;20049;-65
2022/10/19 00:16:41;;;;;;;7.82;3.35;;;11.50;99.90;;;11.47;100.00;102213.38;5225014;28;20052;-65
2022/10/19 00:19:16;;;;;;;6.45;3.28;;;11.50;99.90;;;11.42;100.00;102199.22;5224947;28;20045;-66
2022/10/19 00:21:49;;;;;;;6.18;3.10;;;11.40;99.90;;;11.37;100.00;102200.66;5225071;28;20401;-67
2022/10/19 00:24:22;;;;;;;6.55;3.03;;;11.30;99.90;;;11.31;100.00;102203.84;5224827;28;20048;-66
2022/10/19 00:26:54;;;;;;;7.63;3.47;;;11.30;99.90;;;11.29;100.00;102202.88;5225097;28;20037;-65
2022/10/19 00:29:26;;;;;;;8.48;3.55;;;11.30;99.90;;;11.29;100.00;102207.19;5224790;28;20076;-65
2022/10/19 00:31:59;;;;;;;6.28;2.97;;;11.30;99.90;;;11.27;100.00;102195.75;5224978;28;20145;-66
2022/10/19 00:34:31;;;;;;;7.75;3.35;;;11.20;99.90;;;11.24;100.00;102203.44;5206764;28;20045;-65
2022/10/19 00:37:03;;;;;;;7.68;3.58;;;11.20;99.90;;;11.21;100.00;102203.25;5225028;28;20037;-65
2022/10/19 00:39:36;;;;;;;8.52;3.55;;;11.20;99.90;;;11.17;100.00;102204.81;5225093;28;20501;-66
2022/10/19 00:42:11;;;;;;;7.07;3.67;;;11.10;99.90;;;11.12;100.00;102209.75;5211152;28;20417;-65
2022/10/19 00:45:05;;;;;;;6.75;3.22;;;11.10;99.90;;;11.08;100.00;102212.13;5229227;28;20091;-66
2022/10/19 00:47:37;;;;;;;7.00;3.13;;;11.00;99.90;;;11.03;100.00;102214.50;5228954;28;20041;-66
2022/10/19 00:50:11;;;;;;;6.18;3.47;;;11.00;99.90;;;11.01;100.00;102216.09;5210836;28;20144;-65
2022/10/19 00:52:43;;;;;;;5.63;3.17;;;11.00;99.90;;;10.98;100.00;102215.03;5228311;28;20057;-67
2022/10/19 00:55:17;;;;;;;5.75;2.90;;;11.00;99.90;;;10.94;100.00;102213.97;5228549;28;20037;-66
2022/10/19 00:57:49;;;;;;;8.55;3.63;;;10.90;99.90;;;10.92;100.00;102209.47;5210707;28;20528;-67
2022/10/19 01:00:22;;;;;;;5.57;3.33;;;10.90;99.90;;;10.91;100.00;102215.53;5228107;28;20041;-67
2022/10/19 01:02:54;;;;;;;5.47;3.03;;;10.90;99.90;;;10.94;100.00;102213.06;5228247;28;20053;-63
2022/10/19 01:05:27;;;;;;;6.45;3.38;;;10.90;99.90;;;10.96;100.00;102217.56;5227925;28;20051;-65
2022/10/19 01:08:00;;;;;;;6.50;3.05;;;10.90;99.90;;;10.96;100.00;102217.56;5228394;28;20045;-66
2022/10/19 01:10:43;;;;;;;6.47;3.10;;;10.90;99.90;;;10.96;100.00;102212.34;5228065;28;20502;-66
2022/10/19 01:13:31;;;;;;;8.75;3.20;;;10.90;99.90;;;10.96;100.00;102214.97;5210464;28;20505;-67
2022/10/19 01:16:10;;;;;;;7.47;4.10;;;10.90;99.90;;;10.96;100.00;102211.47;5227787;28;20401;-66
2022/10/19 01:18:51;;;;;;;6.97;3.17;;;10.90;99.90;;;10.94;100.00;102213.97;5227970;28;20508;-67
2022/10/19 01:21:28;;;;;;;6.95;3.38;;;10.90;99.90;;;10.89;100.00;102210.22;5228147;28;20049;-66
2022/10/19 01:24:28;;;;;;;7.15;3.47;;;10.90;99.90;;;10.87;100.00;102212.72;5228080;28;20068;-68
2022/10/19 01:27:27;;;;;;;7.43;3.70;;;10.90;99.90;;;10.83;100.00;102209.88;5198689;28;20100;-65
2022/10/19 01:30:27;;;;;;;6.68;3.50;;;10.80;99.90;;;10.80;100.00;102213.19;5227680;28;20056;-65
2022/10/19 01:33:11;;;;;;;8.25;3.80;;;10.80;99.90;;;10.76;100.00;102205.13;5227529;28;20068;-65
2022/10/19 01:35:51;;;;;;;6.50;3.40;;;10.80;99.90;;;10.73;100.00;102203.22;5227887;28;20568;-68
2022/10/19 01:38:31;;;;;;;7.95;3.60;;;10.80;99.90;;;10.73;100.00;102202.34;5227795;28;20041;-66
2022/10/19 01:41:16;;;;;;;8.88;3.72;;;10.80;99.90;;;10.70;100.00;102192.63;5210372;28;20413;-68
2022/10/19 01:43:56;;;;;;;7.15;3.30;;;10.70;99.90;;;10.70;100.00;102191.75;5227539;28;20106;-65
2022/10/19 01:46:35;;;;;;;6.88;3.03;;;10.70;99.90;;;10.67;100.00;102189.84;5227873;28;20049;-67
2022/10/19 01:49:13;;;;;;;4.30;2.65;;;10.70;99.90;;;10.61;100.00;102181.66;5227532;28;20049;-66
2022/10/19 01:51:51;;;;;;;5.97;3.00;;;10.60;99.90;;;10.55;100.00;102182.22;5226756;28;20064;-68
2022/10/19 01:54:26;;;;;;;5.78;2.80;;;10.60;99.90;;;10.51;100.00;102172.44;5227289;28;20060;-66
2022/10/19 01:57:00;;;;;;;6.90;2.75;;;10.60;99.90;;;10.48;100.00;102169.66;5209829;28;20083;-67
2022/10/19 01:59:34;;;;;;;5.53;3.15;;;10.50;99.90;;;10.45;100.00;102173.81;5227384;28;20521;-67
2022/10/19 02:02:12;;;;;;;7.38;3.55;;;10.50;99.90;;;10.41;100.00;102167.50;5209306;28;20055;-67
2022/10/19 02:04:45;;;;;;;6.60;2.85;;;10.50;99.90;;;10.39;100.00;102163.03;5227194;28;20052;-67
2022/10/19 02:07:22;;;;;;;6.00;3.00;;;10.40;99.90;;;10.36;100.00;102155.91;5227445;28;20052;-66
2022/10/19 02:09:54;;;;;;;6.93;3.28;;;10.40;99.90;;;10.33;100.00;102155.75;5227036;28;20049;-66
2022/10/19 02:12:28;;;;;;;6.65;2.70;;;10.40;99.90;;;10.33;100.00;102168.78;5227429;28;20049;-66
2022/10/19 02:15:11;;;;;;;5.57;2.92;;;10.30;99.90;;;10.31;100.00;102154.78;5227133;28;20055;-65
2022/10/19 02:17:49;;;;;;;5.13;2.80;;;10.30;99.90;;;10.28;100.00;102147.66;5227326;28;20037;-66
2022/10/19 02:20:21;;;;;;;5.80;2.58;;;10.30;99.90;;;10.27;100.00;102158.00;5227057;28;20049;-66
2022/10/19 02:22:53;;;;;;;6.07;2.80;;;10.30;99.90;;;10.23;100.00;102158.63;5226939;28;20041;-66
2022/10/19 02:25:26;;;;;;;5.55;2.75;;;10.30;99.90;;;10.21;100.00;102161.09;5226707;28;20033;-66
2022/10/19 02:28:00;;;;;;;5.57;3.00;;;10.30;99.90;;;10.20;100.00;102161.03;5226861;28;20405;-65
2022/10/19 02:30:33;;;;;;;6.18;2.90;;;10.20;99.90;;;10.17;100.00;102163.44;5226656;28;20655;-67
2022/10/19 02:33:07;;;;;;;6.10;3.05;;;10.20;99.90;;;10.13;100.00;102165.00;5199060;28;20052;-66
2022/10/19 02:35:40;;;;;;;6.30;2.92;;;10.20;99.90;;;10.13;100.00;102174.50;5226237;28;20045;-66
2022/10/19 02:38:17;;;;;;;4.43;2.58;;;10.10;99.90;;;10.14;100.00;102165.88;5226620;28;20456;-67
2022/10/19 02:41:04;;;;;;;6.10;2.63;;;10.20;99.90;;;10.15;100.00;102167.69;5226472;28;20049;-66
2022/10/19 02:43:41;;;;;;;7.32;2.90;;;10.20;99.90;;;10.12;100.00;102154.47;5226657;28;20049;-65
2022/10/19 02:46:21;;;;;;;4.85;2.65;;;10.10;99.90;;;10.07;100.00;102155.09;5226030;28;20037;-66
2022/10/19 02:48:57;;;;;;;5.60;2.78;;;10.10;99.90;;;10.01;100.00;102152.13;5226248;28;20056;-66
2022/10/19 02:51:30;;;;;;;;;;;10.10;99.90;;;9.97;100.00;102157.97;5226663;28;20410;-64
2022/10/19 02:54:05;;;;;;;4.30;2.60;;;10.00;99.90;;;9.95;100.00;102143.06;5226237;28;20014;-66
2022/10/19 02:56:37;;;;;;;5.10;2.53;;;9.90;99.90;;;9.94;100.00;102147.38;5226232;28;20067;-66
2022/10/19 02:59:09;;;;;;;5.07;2.70;;;9.90;99.90;;;9.92;100.00;102150.72;5247019;22;20043;-72
2022/10/19 03:01:41;;;;;;;6.13;2.70;;;10.00;99.90;;;9.90;100.00;102150.59;5225059;28;20051;-70
2022/10/19 03:04:15;;;;;;;4.80;2.58;;;9.90;99.90;;;9.87;100.00;102150.44;5225024;28;20049;-72
2022/10/19 03:06:48;;;;;;;5.63;2.70;;;9.90;99.90;;;9.89;100.00;102150.50;5217921;28;20040;-70
2022/10/19 03:09:20;;;;;;;7.72;3.78;;;9.90;99.90;;;9.90;100.00;102153.19;5205814;28;20418;-72
2022/10/19 03:11:55;;;;;;;8.00;3.78;;;9.90;99.90;;;9.87;100.00;102145.22;5186518;28;20091;-71
2022/10/19 03:14:27;;;;;;;6.72;3.78;;;9.90;99.90;;;9.86;100.00;102145.13;5204822;28;20414;-70
2022/10/19 03:16:59;;;;;;;5.85;2.80;;;9.90;99.90;;;9.83;100.00;102142.34;5186709;28;20049;-72
2022/10/19 03:19:34;;;;;;;5.85;2.88;;;9.90;99.90;;;9.83;100.00;102140.63;5205335;28;20052;-71
2022/10/19 03:22:07;;;;;;;5.90;3.75;;;9.90;99.90;;;9.83;100.00;102143.22;5204160;28;20409;-72
2022/10/19 03:24:39;;;;;;;9.30;4.05;;;9.90;99.90;;;9.83;100.00;102131.91;5204665;28;20052;-72
2022/10/19 03:27:11;;;;;;;15.93;7.55;;;9.80;99.90;;;9.84;100.00;102139.81;5204160;28;20049;-71
2022/10/19 03:29:43;;;;;;;14.27;7.85;;;9.90;99.90;;;9.85;100.00;102133.81;5204312;28;20049;-73
2022/10/19 03:32:15;;;;;;;16.52;8.23;;;9.90;99.90;;;9.86;100.00;102130.41;5186486;28;20585;-70
2022/10/19 03:34:49;;;;;;;12.73;6.75;;;9.90;99.90;;;9.87;100.00;102121.78;5210057;28;20098;-72
2022/10/19 03:37:21;;;;;;;10.68;6.53;;;9.90;99.90;;;9.91;100.00;102126.38;5218945;28;20378;-72
2022/10/19 03:39:53;;;;;;;10.52;5.50;;;9.90;99.90;;;9.92;100.00;102127.28;5217469;28;20042;-72
2022/10/19 03:42:25;;;;;;;8.57;4.60;;;9.90;99.90;;;9.93;100.00;102135.16;5163053;28;20053;-72
2022/10/19 03:44:57;;;;;;;8.38;4.75;;;9.90;99.90;;;9.95;100.00;102136.13;5150596;28;20068;-70
2022/10/19 03:47:29;;;;;;;7.47;4.10;;;10.00;99.90;;;9.97;100.00;102129.31;5204126;28;20048;-71
2022/10/19 03:50:04;;;;;;;7.13;3.60;;;10.00;99.90;;;9.98;100.00;102130.25;5185833;28;20049;-72
2022/10/19 03:52:36;;;;;;;7.97;3.80;;;10.00;99.90;;;10.00;100.00;102126.91;5186192;28;20076;-72
2022/10/19 03:55:10;;;;;;;9.13;3.97;;;10.00;99.90;;;10.00;100.00;102131.22;5204129;28;20033;-70
2022/10/19 03:57:42;;;;;;;7.03;3.50;;;10.10;99.90;;;10.01;100.00;102133.91;5203982;28;20129;-70
2022/10/19 04:00:15;;;;;;;7.05;3.40;;;10.10;99.90;;;10.00;100.00;102126.91;5197505;28;20064;-72
2022/10/19 04:02:47;;;;;;;7.10;3.40;;;10.00;99.90;;;10.00;100.00;102137.31;5224753;28;20084;-71
2022/10/19 04:05:21;;;;;;;6.35;3.17;;;10.10;99.90;;;9.99;100.00;102130.31;5224517;28;20037;-71
2022/10/19 04:07:53;;;;;;;6.43;3.22;;;10.00;99.90;;;9.94;100.00;102136.97;5224129;28;20059;-72
2022/10/19 04:10:25;;;;;;;5.63;3.08;;;10.00;99.90;;;9.92;100.00;102141.19;5224109;28;20041;-71
2022/10/19 04:12:57;;;;;;;6.10;3.00;;;10.00;99.90;;;9.88;100.00;102141.81;5223683;28;20061;-73
2022/10/19 04:15:29;;;;;;;6.10;2.72;;;9.90;99.90;;;9.82;100.00;102141.44;5223620;28;20048;-72
2022/10/19 04:18:02;;;;;;;5.85;2.88;;;9.90;99.90;;;9.77;100.00;102142.88;5180001;28;20122;-71
2022/10/19 04:20:40;;;;;;;4.70;2.60;;;9.80;99.90;;;9.72;100.00;102152.13;5206406;28;20532;-70
2022/10/19 04:23:12;;;;;;;5.32;2.60;;;9.80;99.90;;;9.68;100.00;102150.16;5223836;28;20045;-70
2022/10/19 04:25:44;;;;;;;5.03;2.30;;;9.70;99.90;;;9.64;100.00;102150.75;5172701;28;20064;-72
2022/10/19 04:28:17;;;;;;;4.85;2.58;;;9.70;99.90;;;9.62;100.00;102147.16;5223834;28;20045;-70
2022/10/19 04:30:49;;;;;;;5.13;2.60;;;9.60;99.90;;;9.58;100.00;102143.47;5223963;28;20095;-71
2022/10/19 04:33:21;;;;;;;5.00;2.95;;;9.60;99.90;;;9.57;100.00;102151.19;5223930;28;20410;-70
2022/10/19 04:36:01;;;;;;;5.45;2.65;;;9.60;99.90;;;9.56;100.00;102150.31;5221044;28;20155;-71
2022/10/19 04:38:33;;;;;;;6.80;2.85;;;9.60;99.90;;;9.57;100.00;102154.69;5210883;28;20059;-70
2022/10/19 04:41:08;;;;;;;7.90;3.33;;;9.60;99.90;;;9.56;100.00;102159.81;5216225;28;20048;-70
2022/10/19 04:43:41;;;;;;;6.38;3.10;;;9.60;99.90;;;9.55;100.00;102155.44;5199497;28;20079;-71
2022/10/19 04:46:15;;;;;;;5.93;2.80;;;9.60;99.90;;;9.55;100.00;102152.81;5216790;28;20037;-64
2022/10/19 04:48:49;;;;;;;3.83;2.58;;;9.60;99.90;;;9.54;100.00;102144.13;5222781;28;20049;-65
2022/10/19 04:51:23;;;;;;;4.45;2.38;;;9.60;99.90;;;9.54;100.00;102153.63;5214699;28;20041;-65
2022/10/19 04:53:57;;;;;;;5.55;2.90;;;9.60;99.90;;;9.56;100.00;102152.00;5206863;28;20505;-65
2022/10/19 04:56:31;;;;;;;5.80;2.95;;;9.60;99.90;;;9.57;100.00;102153.81;5206855;28;20051;-64
2022/10/19 04:59:03;;;;;;;5.47;3.00;;;9.60;99.90;;;9.59;100.00;102157.41;5206656;28;20048;-65
2022/10/19 05:01:35;;;;;;;4.78;2.80;;;9.60;99.90;;;9.58;100.00;102139.97;5224897;28;20045;-64
2022/10/19 05:04:09;;;;;;;6.35;3.10;;;9.60;99.90;;;9.52;100.00;102141.44;5224302;28;20044;-64
2022/10/19 05:06:44;;;;;;;6.13;2.90;;;9.60;99.90;;;9.47;100.00;102137.63;5224405;28;20037;-65
2022/10/19 05:09:16;;;;;;;5.22;2.80;;;9.60;99.90;;;9.41;100.00;102142.47;5224154;28;20039;-64
2022/10/19 05:11:49;;;;;;;5.93;3.28;;;9.50;99.90;;;9.40;100.00;102142.38;5203139;28;20432;-66
2022/10/19 05:14:21;;;;;;;7.53;2.55;;;9.50;99.90;;;9.52;100.00;102138.81;5220999;28;20049;-56
2022/10/19 05:16:53;;;;;;;5.03;2.40;;;9.60;99.90;;;9.54;100.00;102135.41;5204063;28;20041;-60
2022/10/19 05:19:26;;;;;;;5.43;2.30;;;9.60;99.90;;;9.51;100.00;102129.19;5222452;28;20060;-59
2022/10/19 05:21:59;;;;;;;5.68;2.70;;;9.60;99.90;;;9.51;100.00;102128.28;5214320;28;20041;-60
2022/10/19 05:24:32;;;;;;;5.38;2.88;;;9.60;99.90;;;9.51;100.00;102134.41;5223778;28;20072;-60
2022/10/19 05:27:04;;;;;;;4.60;2.33;;;9.60;99.90;;;9.48;100.00;102126.41;5226787;28;20045;-61
2022/10/19 05:29:36;;;;;;;5.40;2.47;;;9.60;99.90;;;9.42;100.00;102120.84;5226748;28;20041;-61
2022/10/19 05:32:08;;;;;;;4.35;2.20;;;9.50;99.90;;;9.41;100.00;102129.47;5227718;28;20052;-60
2022/10/19 05:34:40;;;;;;;7.10;2.58;;;9.50;99.90;;;9.39;100.00;102127.53;5227896;28;20045;-60
2022/10/19 05:37:14;;;;;;;5.63;2.75;;;9.40;99.90;;;9.39;100.00;102125.88;5228072;28;20051;-60
2022/10/19 05:39:46;;;;;;;6.10;3.00;;;9.50;99.90;;;9.41;100.00;102131.16;5227376;28;20041;-61
2022/10/19 05:42:18;;;;;;;5.65;3.13;;;9.50;99.90;;;9.42;100.00;102127.75;5227481;28;20052;-61
2022/10/19 05:44:50;;;;;;;7.82;3.40;;;9.50;99.90;;;9.44;100.00;102132.22;5227633;28;20052;-60
2022/10/19 05:47:22;;;;;;;7.68;3.05;;;9.50;99.90;;;9.46;100.00;102141.06;5227696;28;20044;-61
2022/10/19 05:49:54;;;;;;;7.10;3.28;;;9.50;99.90;;;9.45;100.00;102131.44;5227176;28;20052;-60
2022/10/19 05:52:28;;;;;;;7.80;3.20;;;9.50;99.90;;;9.45;100.00;102117.50;5227165;28;20509;-60
2022/10/19 05:55:00;;;;;;;9.05;3.85;;;9.50;99.90;;;9.46;100.00;102124.53;5226555;28;20072;-60
2022/10/19 05:57:32;;;;;;;7.72;3.45;;;9.50;99.90;;;9.49;100.00;102123.00;5226632;28;20052;-60
2022/10/19 06:00:05;;;;;;;7.90;3.72;;;9.60;99.90;;;9.49;100.00;102125.59;5226320;28;20049;-60
2022/10/19 06:02:43;;;;;;;7.28;3.38;;;9.60;99.90;;;9.48;100.00;102126.41;5226680;28;20083;-60
2022/10/19 06:05:16;;;;;;;9.13;3.83;;;9.60;99.90;;;9.50;100.00;102122.19;5226045;28;20045;-60
2022/10/19 06:07:49;;;;;;;8.40;4.10;;;9.70;99.90;;;9.55;100.00;102121.59;5227067;28;20390;-61
2022/10/19 06:10:21;;;;;;;6.22;3.00;;;9.60;99.90;;;9.58;100.00;102130.44;5226714;28;20536;-61
2022/10/19 06:12:54;;;;;;;8.52;3.65;;;9.70;99.90;;;9.59;100.00;102132.28;5227197;28;20045;-59
2022/10/19 06:15:26;;;;;;;11.43;4.22;;;9.70;99.90;;;9.59;100.00;102128.78;5227112;28;20049;-61
2022/10/19 06:17:58;;;;;;;8.32;3.80;;;9.70;99.90;;;9.56;100.00;102125.97;5226826;28;20045;-60
2022/10/19 06:20:30;;;;;;;9.15;4.10;;;9.70;99.90;;;9.56;100.00;102126.88;5226833;28;20045;-60
2022/10/19 06:23:05;;;;;;;10.30;4.45;;;9.70;99.90;;;9.57;100.00;102122.56;5227335;28;20041;-60
2022/10/19 06:25:38;;;;;;;9.88;4.60;;;9.70;99.90;;;9.54;100.00;102127.59;5226694;28;20053;-61
2022/10/19 06:28:10;;;;;;;9.05;4.28;;;9.70;99.90;;;9.57;100.00;102133.88;5226757;28;20045;-61
2022/10/19 06:30:42;;;;;;;10.32;4.72;;;9.70;99.90;;;9.59;100.00;102128.78;5226433;28;20052;-60
2022/10/19 06:33:24;;;;;;;9.60;3.80;;;9.70;99.90;;;9.64;100.00;102141.25;5226680;28;20052;-61
2022/10/19 06:35:56;;;;;;;;;;;9.70;99.90;;;9.63;100.00;102146.38;5227075;28;20041;-60
2022/10/19 06:38:29;;;;;;;9.45;4.40;;;9.80;99.90;;;9.60;100.00;102148.78;5226166;28;19956;-61
2022/10/19 06:41:02;;;;;;;11.45;4.40;;;9.70;99.90;;;9.57;100.00;102148.59;5226032;28;20059;-61
2022/10/19 06:43:37;;;;;;;11.38;4.57;;;9.70;99.90;;;9.56;100.00;102157.22;5226647;28;20090;-61
2022/10/19 06:46:13;;;;;;;7.95;4.35;;;9.70;99.90;;;9.54;100.00;102164.03;5226651;28;20036;-60
2022/10/19 06:48:51;;;;;;;7.88;3.88;;;9.70;99.90;;;9.58;100.00;102166.00;5226587;28;20512;-62
2022/10/19 06:51:25;;;;;;;7.63;3.20;;;9.70;99.90;;;9.62;100.00;102154.97;5225848;28;20049;-60
2022/10/19 06:53:58;;;;;;;11.18;4.55;;;9.70;99.90;;;9.65;100.00;102152.56;5226309;28;20509;-61
2022/10/19 06:56:31;;;;;;;12.07;4.75;;;9.80;99.90;;;9.63;100.00;102154.16;5226305;28;20124;-60
2022/10/19 06:59:03;;;;;;;7.65;3.75;;;9.80;99.90;;;9.58;100.00;102155.59;5226100;28;20052;-61
2022/10/19 07:01:41;;;;;;;8.40;3.72;;;9.70;99.90;;;9.61;100.00;102148.00;5225713;28;20048;-61
2022/10/19 07:04:13;;;;;;;7.90;3.60;;;9.80;99.90;;;9.61;100.00;102145.38;5226155;28;20051;-61
2022/10/19 07:06:45;;;;;;;7.63;3.55;;;9.70;99.90;;;9.59;100.00;102134.00;5226443;28;20414;-61
2022/10/19 07:09:21;;;;;;;7.18;3.58;;;9.70;99.90;;;9.60;100.00;102143.59;5226132;28;20102;-61
2022/10/19 07:11:53;;;;;;;5.80;3.13;;;9.70;99.90;;;9.67;100.00;102140.53;5225443;28;20448;-62
2022/10/19 07:14:27;;;;;;;6.28;2.97;;;9.80;99.90;;;9.70;100.00;102151.13;5207936;28;20056;-60
2022/10/19 07:17:00;;;;;;;7.20;3.42;;;9.80;99.90;;;9.72;100.00;102139.13;5225940;28;20045;-61
2022/10/19 07:19:32;;;;;;;6.95;3.45;;;9.80;99.90;;;9.79;100.00;102136.06;5225704;28;20576;-61
2022/10/19 07:22:08;;;;;;;7.50;3.00;;;9.80;99.90;;;9.85;100.00;102131.22;5225552;28;20051;-60
2022/10/19 07:24:41;;;;;;;5.85;3.30;;;9.90;99.90;;;9.91;100.00;102142.00;5225875;28;20402;-60
2022/10/19 07:27:13;;;;;;;6.35;2.67;;;10.00;99.90;;;9.93;100.00;102137.78;5225701;28;20049;-60
2022/10/19 07:29:47;;;;;;;4.45;2.70;;;10.00;99.90;;;9.97;100.00;102142.34;5225372;28;20076;-60
2022/10/19 07:32:20;;;;;;;6.13;2.50;;;10.00;99.90;;;10.01;100.00;102141.72;5225472;28;20052;-61
2022/10/19 07:34:52;;;;;;;4.15;2.22;;;10.10;99.90;;;10.06;100.00;102148.09;5225371;28;20583;-59
2022/10/19 07:37:24;;;;;;;4.40;2.67;;;10.10;99.90;;;10.11;100.00;102139.66;5225367;28;20490;-59
2022/10/19 07:39:58;;;;;;;4.18;2.30;;;10.10;99.90;;;10.17;100.00;102153.94;5225177;28;20147;-60
2022/10/19 07:42:30;;;;;;;5.53;2.38;;;10.20;99.90;;;10.25;100.00;102149.19;5225782;28;20041;-60
2022/10/19 07:45:06;;;;;;;4.13;2.22;;;10.20;99.90;;;10.40;100.00;102144.84;5226003;28;20041;-59
2022/10/19 07:47:38;;;;;;;4.32;2.15;;;10.30;99.90;;;10.66;100.00;102141.09;5207374;28;20052;-59
2022/10/19 07:50:10;;;;;;;5.70;2.60;;;10.50;99.90;;;11.00;100.00;102145.56;5224317;28;20055;-60
2022/10/19 07:52:42;;;;;;;6.70;2.50;;;10.60;99.90;;;11.40;100.00;102138.16;5225302;28;20045;-61
2022/10/19 07:55:16;;;;;;;5.80;2.20;;;10.90;99.90;;;11.86;100.00;102145.78;5225359;28;20049;-62
2022/10/19 07:57:48;;;;;;;4.38;2.40;;;11.20;99.90;;;12.42;100.00;102150.34;5224882;28;20041;-59
2022/10/19 08:00:21;;;;;;;4.20;2.55;;;11.60;99.90;;;13.02;100.00;102147.13;5224831;28;20421;-60
2022/10/19 08:02:53;;;;;;;5.75;2.22;;;12.10;99.90;;;13.59;100.00;102152.34;5225131;28;20033;-60
2022/10/19 08:05:25;;;;;;;4.07;2.38;;;12.70;99.90;;;14.17;100.00;102140.81;5225175;28;20045;-60
2022/10/19 08:07:57;;;;;;;4.90;2.00;;;13.20;99.90;;;14.72;100.00;102136.09;5224971;28;20047;-60
2022/10/19 08:10:31;;;;;;;5.15;1.95;;;13.70;99.90;;;15.33;100.00;102148.03;5224649;28;20048;-61
2022/10/19 08:13:03;;;;;;;5.60;1.77;;;14.30;99.90;;;15.93;100.00;102154.59;5225139;28;20053;-61
2022/10/19 08:15:36;;;;;;;4.55;2.03;;;14.80;99.90;;;16.55;99.57;102155.78;5225008;28;20431;-60
2022/10/19 08:18:08;;;;;;;3.67;1.52;;;15.30;99.90;;;17.14;95.59;102157.59;5225050;28;20490;-60
2022/10/19 08:20:41;;;;;;;5.57;1.80;;;15.80;99.90;;;17.46;92.64;102154.16;5224526;28;20049;-61
2022/10/19 08:23:13;;;;;;;2.88;1.27;;;16.20;99.90;;;17.88;91.40;102137.75;5215578;28;20501;-60
2022/10/19 08:25:47;;;;;;;3.35;1.42;;;16.60;99.90;;;18.26;90.13;102145.75;5216797;28;20045;-61
2022/10/19 08:28:19;;;;;;;3.60;1.40;;;17.00;99.90;;;18.48;88.45;102142.78;5218329;28;20079;-62
2022/10/19 08:30:57;;;;;;;2.42;1.60;;;17.30;99.90;;;18.36;86.80;102137.19;5217250;28;20045;-61
2022/10/19 08:33:29;;;;;;;6.03;2.45;;;17.50;99.20;;;18.16;86.08;102137.59;5207968;28;20297;-60
2022/10/19 08:36:05;;;;;;;5.22;2.15;;;17.40;98.20;;;17.97;86.44;102121.25;5216498;28;20053;-61
2022/10/19 08:38:38;;;;;;;2.90;1.80;;;17.30;98.30;;;17.73;87.17;102132.06;5206451;28;20520;-62
2022/10/19 08:41:25;;;;;;;3.63;1.90;;;17.20;98.30;;;17.34;88.89;102124.81;5224471;28;20353;-61
2022/10/19 08:44:19;;;;;;;4.35;1.88;;;17.00;98.60;;;16.94;90.41;102126.28;5225598;28;20049;-62
2022/10/19 08:47:04;;;;;;;3.63;1.80;;;16.80;98.80;;;16.72;92.23;102108.06;5225510;28;20037;-60
2022/10/19 08:49:37;;;;;;;3.20;1.80;;;16.50;99.50;;;16.64;94.02;102117.44;5225186;28;20060;-61
2022/10/19 08:52:16;;;;;;;3.38;2.10;;;16.40;99.90;;;16.61;95.28;102114.72;5223643;28;20051;-61
2022/10/19 08:54:54;;;;;;;4.57;1.80;;;16.30;99.90;;;16.61;95.81;102106.81;5206215;28;20056;-62
2022/10/19 08:57:38;;;;;;;4.13;2.28;;;16.30;99.90;;;16.58;95.86;102099.72;5223955;28;20041;-61
2022/10/19 09:00:20;;;;;;;4.40;1.70;;;16.30;99.90;;;16.57;96.54;102091.78;5257885;22;20049;-85
2022/10/19 09:05:51;;;;;;;5.80;2.15;;;16.30;99.90;;;16.51;97.46;102088.09;5238911;28;20149;-58
2022/10/19 09:08:23;;;;;;;3.70;1.90;;;16.20;99.90;;;16.45;99.60;102087.03;5248477;28;20048;-59
2022/10/19 09:10:56;;;;;;;5.47;1.75;;;16.20;99.90;;;16.47;98.60;102091.47;5248155;28;20528;-60
2022/10/19 09:13:37;;;;;;;6.47;2.30;;;16.20;99.90;;;16.52;98.97;102089.00;5247574;28;20431;-56
2022/10/19 09:16:15;;;;;;;4.90;1.60;;;16.20;99.90;;;16.64;98.74;102099.03;5248217;28;20072;-56
2022/10/19 09:18:48;;;;;;;3.22;1.50;;;16.30;99.90;;;16.70;98.13;102088.72;5248778;28;20043;-56
2022/10/19 09:21:24;;;;;;;4.78;2.22;;;16.40;99.90;;;16.86;100.00;102088.31;5247651;28;20044;-58
2022/10/19 09:24:04;;;;;;;4.05;1.88;;;16.50;99.90;;;17.42;97.86;102083.75;5240626;28;20094;-58
2022/10/19 09:26:45;;;;;;;6.22;2.10;;;16.90;99.90;;;17.69;94.30;102078.31;5248063;28;20049;-57
2022/10/19 09:29:27;;;;;;;4.90;1.83;;;17.20;99.90;;;17.84;94.54;102083.13;5248280;28;20049;-56
2022/10/19 09:32:04;;;;;;;3.38;1.52;;;17.40;99.90;;;17.94;94.14;102085.16;5247780;28;20048;-55
2022/10/19 09:34:42;;;;;;;6.70;1.95;;;17.50;99.90;;;18.02;95.00;102082.69;5248054;28;20075;-56
2022/10/19 09:37:14;;;;;;;3.58;1.90;;;17.60;99.90;;;17.99;94.61;102087.88;5245009;28;20036;-56
2022/10/19 09:39:46;;;;;;;4.18;2.05;;;17.60;99.90;;;17.89;93.43;102078.88;5243093;28;20565;-58
2022/10/19 09:42:24;;;;;;;3.58;2.30;;;17.50;99.90;;;17.89;94.16;102076.22;5243672;28;20413;-57
2022/10/19 09:45:01;;;;;;;3.92;1.88;;;17.50;99.90;;;17.93;97.53;102080.75;5242112;28;20528;-60
2022/10/19 09:47:36;;;;;;;4.55;1.65;;;17.50;99.90;;;18.14;100.00;102068.06;5249696;28;20040;-59
2022/10/19 09:50:17;;;;;;;3.72;2.42;;;17.70;99.90;;;18.33;100.00;102063.22;5249375;28;20048;-58
2022/10/19 09:52:50;;;;;;;;;;;17.90;99.90;;;18.48;99.55;102068.84;5248795;28;20127;-61
2022/10/19 09:55:36;;;;;;;5.50;2.08;;;18.10;99.90;;;18.60;97.25;102069.13;5249354;28;19920;-58
2022/10/19 09:58:18;;;;;;;4.72;1.77;;;18.30;99.90;;;18.76;97.17;102069.47;5249338;28;20051;-57
2022/10/19 10:00:54;;;;;;;4.97;2.40;;;18.50;99.90;;;18.76;91.89;102065.06;5249027;28;20524;-57
2022/10/19 10:03:30;;;;;;;5.78;2.40;;;18.50;98.80;;;18.78;96.63;102068.66;5249696;28;20558;-58
2022/10/19 10:06:06;;;;;;;3.42;1.52;;;18.60;99.90;;;18.85;94.75;102059.13;5248199;28;20492;-56
2022/10/19 10:08:45;;;;;;;3.88;1.88;;;18.70;99.90;;;18.98;93.42;102062.03;5248149;28;20044;-59
2022/10/19 10:11:25;;;;;;;5.22;2.10;;;18.80;99.30;;;19.07;93.16;102061.31;5247522;28;20048;-58
2022/10/19 10:14:00;;;;;;;3.65;2.22;;;18.80;99.60;;;19.10;90.54;102064.00;5229020;28;20417;-58
2022/10/19 10:16:35;;;;;;;3.92;1.85;;;18.80;98.30;;;19.11;92.65;102057.91;5247913;28;20488;-58
2022/10/19 10:19:12;;;;;;;3.03;1.77;;;18.90;99.00;;;19.20;90.69;102052.78;5247628;28;20497;-59
2022/10/19 10:21:49;;;;;;;3.03;1.65;;;18.90;98.30;;;19.11;90.21;102052.59;5247418;28;20421;-59
2022/10/19 10:24:24;;;;;;;5.53;2.20;;;18.90;98.10;;;19.07;90.62;102040.19;5248159;28;20459;-58
2022/10/19 10:26:59;;;;;;;2.83;1.45;;;18.80;98.10;;;19.17;92.19;102031.59;5247966;28;20078;-58
2022/10/19 10:29:35;;;;;;;4.68;1.70;;;18.90;98.70;;;19.35;90.71;102040.69;5247552;28;20056;-58
2022/10/19 10:32:15;;;;;;;4.63;1.90;;;19.00;98.10;;;19.44;89.05;102038.25;5246905;28;20058;-60
2022/10/19 10:34:56;;;;;;;4.95;1.83;;;19.20;97.50;;;19.45;89.87;102042.66;5244078;28;20063;-60
2022/10/19 10:37:35;;;;;;;5.15;2.50;;;19.20;97.70;;;19.55;88.30;102039.31;5247509;28;20041;-58
2022/10/19 10:40:21;;;;;;;2.53;1.10;;;19.30;97.20;;;19.61;88.17;102046.50;5247314;28;20056;-60
2022/10/19 10:42:56;;;;;;;2.35;1.38;;;19.30;97.10;;;19.62;86.68;102042.97;5247418;28;20044;-61
2022/10/19 10:45:33;;;;;;;2.55;1.30;;;19.30;96.60;;;19.50;86.70;102025.13;5247390;28;20048;-61
2022/10/19 10:48:26;;;;;;;4.38;1.70;;;19.30;96.40;;;19.43;87.82;102021.50;5245256;28;20081;-62